North Hudson, Wisconsin
Current Conditions -  °F | °C
As of 5:51 AM on Monday 22 Dec 2014 (Local Time) from K21D Reporting Station
Light Rain Light Rain  
Wind Chill: 29°   Ceiling: 600
Heat Index: 36°   Visibility: 4mi
Dew Point: 36°   Wind: 9mph
Humidity: 100%   Direction: 140°SE
Pressure: 29.7"   Gusts: 16mph
Location:  44.9743°N, 92.6899°W
Report Text: K21D 221151Z AUTO 14008G14KT 4SM -RA OVC006 02/02 A2970 RMK AO2
Loading
Personal Weather Stations






























Interactive Weather Map New forecast layout! Learn more

10-Day Weather Forecast

Advertisements
Track Severe Weather on mobile